sensor_id;sensor_type;location;lat;lon;timestamp;P1;durP1;ratioP1;P2;durP2;ratioP2
78989;SDS011;68390;52.130;21.218;2023-05-09T00:00:31;32.88;;;17.50;;
78989;SDS011;68390;52.130;21.218;2023-05-09T00:02:56;36.33;;;18.17;;
78989;SDS011;68390;52.130;21.218;2023-05-09T00:05:22;40.60;;;20.33;;
78989;SDS011;68390;52.130;21.218;2023-05-09T00:07:47;40.83;;;20.38;;
78989;SDS011;68390;52.130;21.218;2023-05-09T00:10:13;35.20;;;19.08;;
78989;SDS011;68390;52.130;21.218;2023-05-09T00:12:39;37.75;;;19.27;;
78989;SDS011;68390;52.130;21.218;2023-05-09T00:15:06;38.25;;;20.13;;
78989;SDS011;68390;52.130;21.218;2023-05-09T00:17:32;35.75;;;17.33;;
78989;SDS011;68390;52.130;21.218;2023-05-09T00:20:02;33.53;;;18.58;;
78989;SDS011;68390;52.130;21.218;2023-05-09T00:22:31;36.63;;;18.33;;
78989;SDS011;68390;52.130;21.218;2023-05-09T00:24:57;23.45;;;14.27;;
78989;SDS011;68390;52.130;21.218;2023-05-09T00:27:22;36.47;;;17.98;;
78989;SDS011;68390;52.130;21.218;2023-05-09T00:29:48;34.28;;;18.67;;
78989;SDS011;68390;52.130;21.218;2023-05-09T00:32:13;42.67;;;21.67;;
78989;SDS011;68390;52.130;21.218;2023-05-09T00:34:38;38.50;;;18.92;;
78989;SDS011;68390;52.130;21.218;2023-05-09T00:37:04;41.30;;;20.90;;
78989;SDS011;68390;52.130;21.218;2023-05-09T00:39:30;35.88;;;19.85;;
78989;SDS011;68390;52.130;21.218;2023-05-09T00:41:55;40.72;;;21.17;;
78989;SDS011;68390;52.130;21.218;2023-05-09T00:44:21;39.80;;;20.92;;
78989;SDS011;68390;52.130;21.218;2023-05-09T00:46:46;36.20;;;19.75;;
78989;SDS011;68390;52.130;21.218;2023-05-09T00:49:12;30.67;;;15.98;;
78989;SDS011;68390;52.130;21.218;2023-05-09T00:51:38;34.13;;;19.00;;
78989;SDS011;68390;52.130;21.218;2023-05-09T00:54:04;28.05;;;14.82;;
78989;SDS011;68390;52.130;21.218;2023-05-09T00:56:30;41.03;;;20.27;;
78989;SDS011;68390;52.130;21.218;2023-05-09T00:58:56;35.13;;;16.20;;
78989;SDS011;68390;52.130;21.218;2023-05-09T01:01:22;41.20;;;20.30;;
78989;SDS011;68390;52.130;21.218;2023-05-09T01:03:48;32.40;;;18.27;;
78989;SDS011;68390;52.130;21.218;2023-05-09T01:06:31;32.03;;;17.92;;
78989;SDS011;68390;52.130;21.218;2023-05-09T01:11:40;41.70;;;19.20;;
78989;SDS011;68390;52.130;21.218;2023-05-09T01:14:31;37.35;;;20.35;;
78989;SDS011;68390;52.130;21.218;2023-05-09T01:17:22;39.30;;;20.55;;
78989;SDS011;68390;52.130;21.218;2023-05-09T01:22:25;37.75;;;20.60;;
78989;SDS011;68390;52.130;21.218;2023-05-09T01:25:09;35.20;;;18.95;;
78989;SDS011;68390;52.130;21.218;2023-05-09T01:28:11;29.65;;;16.98;;
78989;SDS011;68390;52.130;21.218;2023-05-09T01:30:57;32.22;;;15.80;;
78989;SDS011;68390;52.130;21.218;2023-05-09T01:33:23;40.40;;;18.80;;
78989;SDS011;68390;52.130;21.218;2023-05-09T01:35:52;38.65;;;20.77;;
78989;SDS011;68390;52.130;21.218;2023-05-09T01:38:28;42.45;;;21.20;;
78989;SDS011;68390;52.130;21.218;2023-05-09T01:40:56;37.08;;;19.77;;
78989;SDS011;68390;52.130;21.218;2023-05-09T01:43:24;42.17;;;20.67;;
78989;SDS011;68390;52.130;21.218;2023-05-09T01:45:52;37.53;;;19.48;;
78989;SDS011;68390;52.130;21.218;2023-05-09T01:48:19;36.40;;;18.55;;
78989;SDS011;68390;52.130;21.218;2023-05-09T01:50:50;39.83;;;20.30;;
78989;SDS011;68390;52.130;21.218;2023-05-09T01:53:17;44.85;;;21.35;;
78989;SDS011;68390;52.130;21.218;2023-05-09T01:55:44;38.00;;;18.95;;
78989;SDS011;68390;52.130;21.218;2023-05-09T01:58:12;41.22;;;20.00;;
78989;SDS011;68390;52.130;21.218;2023-05-09T02:00:39;33.05;;;18.63;;
78989;SDS011;68390;52.130;21.218;2023-05-09T02:03:06;32.20;;;17.23;;
78989;SDS011;68390;52.130;21.218;2023-05-09T02:05:32;42.65;;;21.67;;
78989;SDS011;68390;52.130;21.218;2023-05-09T02:07:59;40.47;;;20.50;;
78989;SDS011;68390;52.130;21.218;2023-05-09T02:10:28;34.72;;;16.95;;
78989;SDS011;68390;52.130;21.218;2023-05-09T02:12:53;40.30;;;20.30;;
78989;SDS011;68390;52.130;21.218;2023-05-09T02:15:20;40.63;;;20.20;;
78989;SDS011;68390;52.130;21.218;2023-05-09T02:17:47;33.78;;;18.35;;
78989;SDS011;68390;52.130;21.218;2023-05-09T02:20:12;37.63;;;20.33;;
78989;SDS011;68390;52.130;21.218;2023-05-09T02:22:38;36.35;;;18.60;;
78989;SDS011;68390;52.130;21.218;2023-05-09T02:25:05;37.47;;;19.88;;
78989;SDS011;68390;52.130;21.218;2023-05-09T02:27:32;41.13;;;20.70;;
78989;SDS011;68390;52.130;21.218;2023-05-09T02:30:00;27.95;;;14.07;;
78989;SDS011;68390;52.130;21.218;2023-05-09T02:32:30;32.28;;;17.35;;
78989;SDS011;68390;52.130;21.218;2023-05-09T02:34:57;33.08;;;17.17;;
78989;SDS011;68390;52.130;21.218;2023-05-09T02:37:25;36.08;;;18.05;;
78989;SDS011;68390;52.130;21.218;2023-05-09T02:39:51;42.10;;;20.02;;
78989;SDS011;68390;52.130;21.218;2023-05-09T02:42:20;43.83;;;20.05;;
78989;SDS011;68390;52.130;21.218;2023-05-09T02:44:49;38.50;;;19.98;;
78989;SDS011;68390;52.130;21.218;2023-05-09T02:47:15;40.13;;;19.05;;
78989;SDS011;68390;52.130;21.218;2023-05-09T02:49:40;39.42;;;19.70;;
78989;SDS011;68390;52.130;21.218;2023-05-09T02:52:06;32.42;;;15.80;;
78989;SDS011;68390;52.130;21.218;2023-05-09T02:54:31;36.33;;;19.40;;
78989;SDS011;68390;52.130;21.218;2023-05-09T02:56:57;34.20;;;17.83;;
78989;SDS011;68390;52.130;21.218;2023-05-09T02:59:23;39.95;;;18.48;;
78989;SDS011;68390;52.130;21.218;2023-05-09T03:01:49;34.60;;;18.13;;
78989;SDS011;68390;52.130;21.218;2023-05-09T03:04:15;35.78;;;17.90;;
78989;SDS011;68390;52.130;21.218;2023-05-09T03:06:40;34.30;;;18.80;;
78989;SDS011;68390;52.130;21.218;2023-05-09T03:09:06;36.05;;;18.00;;
78989;SDS011;68390;52.130;21.218;2023-05-09T03:11:31;33.78;;;16.25;;
78989;SDS011;68390;52.130;21.218;2023-05-09T03:13:57;33.10;;;18.00;;
78989;SDS011;68390;52.130;21.218;2023-05-09T03:16:22;30.38;;;17.02;;
78989;SDS011;68390;52.130;21.218;2023-05-09T03:18:48;31.70;;;16.73;;
78989;SDS011;68390;52.130;21.218;2023-05-09T03:21:13;32.25;;;16.45;;
78989;SDS011;68390;52.130;21.218;2023-05-09T03:23:38;32.35;;;16.48;;
78989;SDS011;68390;52.130;21.218;2023-05-09T03:26:04;28.85;;;15.32;;
78989;SDS011;68390;52.130;21.218;2023-05-09T03:28:29;32.80;;;15.93;;
78989;SDS011;68390;52.130;21.218;2023-05-09T03:30:55;29.00;;;14.68;;
78989;SDS011;68390;52.130;21.218;2023-05-09T03:33:20;26.20;;;14.55;;
78989;SDS011;68390;52.130;21.218;2023-05-09T03:35:46;32.85;;;15.05;;
78989;SDS011;68390;52.130;21.218;2023-05-09T03:38:11;19.15;;;11.23;;
78989;SDS011;68390;52.130;21.218;2023-05-09T03:40:37;26.98;;;14.65;;
78989;SDS011;68390;52.130;21.218;2023-05-09T03:43:02;28.05;;;13.98;;
78989;SDS011;68390;52.130;21.218;2023-05-09T03:45:28;27.45;;;14.50;;
78989;SDS011;68390;52.130;21.218;2023-05-09T03:47:53;30.52;;;13.93;;
78989;SDS011;68390;52.130;21.218;2023-05-09T03:50:19;29.38;;;15.15;;
78989;SDS011;68390;52.130;21.218;2023-05-09T03:52:44;24.42;;;14.25;;
78989;SDS011;68390;52.130;21.218;2023-05-09T03:55:10;30.98;;;14.65;;
78989;SDS011;68390;52.130;21.218;2023-05-09T03:57:36;30.30;;;14.07;;
78989;SDS011;68390;52.130;21.218;2023-05-09T04:00:02;29.15;;;14.70;;
78989;SDS011;68390;52.130;21.218;2023-05-09T04:02:30;30.08;;;15.43;;
78989;SDS011;68390;52.130;21.218;2023-05-09T04:04:57;23.95;;;14.27;;
78989;SDS011;68390;52.130;21.218;2023-05-09T04:07:22;31.90;;;15.68;;
78989;SDS011;68390;52.130;21.218;2023-05-09T04:09:48;24.50;;;14.30;;
78989;SDS011;68390;52.130;21.218;2023-05-09T04:12:14;29.08;;;15.48;;
78989;SDS011;68390;52.130;21.218;2023-05-09T04:14:39;25.25;;;14.27;;
78989;SDS011;68390;52.130;21.218;2023-05-09T04:17:05;27.27;;;16.08;;
78989;SDS011;68390;52.130;21.218;2023-05-09T04:19:30;25.02;;;14.07;;
78989;SDS011;68390;52.130;21.218;2023-05-09T04:21:56;21.48;;;11.88;;
78989;SDS011;68390;52.130;21.218;2023-05-09T04:24:21;26.00;;;13.93;;
78989;SDS011;68390;52.130;21.218;2023-05-09T04:26:46;25.33;;;13.60;;
78989;SDS011;68390;52.130;21.218;2023-05-09T04:29:12;30.25;;;14.43;;
78989;SDS011;68390;52.130;21.218;2023-05-09T04:31:37;27.35;;;15.60;;
78989;SDS011;68390;52.130;21.218;2023-05-09T04:34:03;28.08;;;16.52;;
78989;SDS011;68390;52.130;21.218;2023-05-09T04:36:28;29.50;;;15.60;;
78989;SDS011;68390;52.130;21.218;2023-05-09T04:38:55;30.30;;;16.33;;
78989;SDS011;68390;52.130;21.218;2023-05-09T04:41:21;26.15;;;15.45;;
78989;SDS011;68390;52.130;21.218;2023-05-09T04:43:46;29.05;;;16.10;;
78989;SDS011;68390;52.130;21.218;2023-05-09T04:46:12;25.80;;;14.68;;
78989;SDS011;68390;52.130;21.218;2023-05-09T04:48:37;24.42;;;15.48;;
78989;SDS011;68390;52.130;21.218;2023-05-09T04:51:02;23.13;;;13.52;;
78989;SDS011;68390;52.130;21.218;2023-05-09T04:53:28;27.60;;;14.45;;
78989;SDS011;68390;52.130;21.218;2023-05-09T04:55:53;21.95;;;12.40;;
78989;SDS011;68390;52.130;21.218;2023-05-09T04:58:20;27.63;;;14.60;;
78989;SDS011;68390;52.130;21.218;2023-05-09T05:00:45;20.20;;;12.25;;
78989;SDS011;68390;52.130;21.218;2023-05-09T05:03:11;24.85;;;13.55;;
78989;SDS011;68390;52.130;21.218;2023-05-09T05:05:36;22.23;;;11.75;;
78989;SDS011;68390;52.130;21.218;2023-05-09T05:08:04;26.95;;;13.20;;
78989;SDS011;68390;52.130;21.218;2023-05-09T05:10:29;18.58;;;10.60;;
78989;SDS011;68390;52.130;21.218;2023-05-09T05:12:55;19.42;;;10.73;;
78989;SDS011;68390;52.130;21.218;2023-05-09T05:15:20;17.27;;;9.97;;
78989;SDS011;68390;52.130;21.218;2023-05-09T05:17:45;17.83;;;9.98;;
78989;SDS011;68390;52.130;21.218;2023-05-09T05:20:11;15.95;;;9.18;;
78989;SDS011;68390;52.130;21.218;2023-05-09T05:22:36;16.70;;;9.43;;
78989;SDS011;68390;52.130;21.218;2023-05-09T05:25:02;22.42;;;9.18;;
78989;SDS011;68390;52.130;21.218;2023-05-09T05:27:28;16.30;;;9.02;;
78989;SDS011;68390;52.130;21.218;2023-05-09T05:29:53;13.40;;;8.07;;
78989;SDS011;68390;52.130;21.218;2023-05-09T05:32:19;13.93;;;9.00;;
78989;SDS011;68390;52.130;21.218;2023-05-09T05:34:45;15.93;;;8.18;;
78989;SDS011;68390;52.130;21.218;2023-05-09T05:37:10;15.25;;;8.18;;
78989;SDS011;68390;52.130;21.218;2023-05-09T05:39:35;18.77;;;8.48;;
78989;SDS011;68390;52.130;21.218;2023-05-09T05:42:01;14.55;;;7.65;;
78989;SDS011;68390;52.130;21.218;2023-05-09T05:44:26;15.30;;;7.47;;
78989;SDS011;68390;52.130;21.218;2023-05-09T05:46:51;15.00;;;7.80;;
78989;SDS011;68390;52.130;21.218;2023-05-09T05:49:17;12.15;;;6.63;;
78989;SDS011;68390;52.130;21.218;2023-05-09T05:51:43;9.68;;;6.38;;
78989;SDS011;68390;52.130;21.218;2023-05-09T05:54:08;10.88;;;5.75;;
78989;SDS011;68390;52.130;21.218;2023-05-09T05:56:33;9.15;;;5.72;;
78989;SDS011;68390;52.130;21.218;2023-05-09T05:58:59;11.93;;;5.30;;
78989;SDS011;68390;52.130;21.218;2023-05-09T06:01:25;7.55;;;4.20;;
78989;SDS011;68390;52.130;21.218;2023-05-09T06:03:50;7.68;;;4.82;;
78989;SDS011;68390;52.130;21.218;2023-05-09T06:06:19;7.10;;;4.07;;
78989;SDS011;68390;52.130;21.218;2023-05-09T06:08:46;6.57;;;3.78;;
78989;SDS011;68390;52.130;21.218;2023-05-09T06:11:14;7.32;;;4.00;;
78989;SDS011;68390;52.130;21.218;2023-05-09T06:13:40;7.63;;;3.78;;
78989;SDS011;68390;52.130;21.218;2023-05-09T06:16:06;7.20;;;4.20;;
78989;SDS011;68390;52.130;21.218;2023-05-09T06:18:33;7.72;;;3.47;;
78989;SDS011;68390;52.130;21.218;2023-05-09T06:20:59;7.18;;;3.63;;
78989;SDS011;68390;52.130;21.218;2023-05-09T06:23:25;5.32;;;3.70;;
78989;SDS011;68390;52.130;21.218;2023-05-09T06:25:50;7.97;;;3.53;;
78989;SDS011;68390;52.130;21.218;2023-05-09T06:28:16;4.03;;;3.17;;
78989;SDS011;68390;52.130;21.218;2023-05-09T06:30:41;5.43;;;3.53;;
78989;SDS011;68390;52.130;21.218;2023-05-09T06:33:06;6.22;;;3.10;;
78989;SDS011;68390;52.130;21.218;2023-05-09T06:35:32;8.80;;;3.08;;
78989;SDS011;68390;52.130;21.218;2023-05-09T06:37:57;5.78;;;3.15;;
78989;SDS011;68390;52.130;21.218;2023-05-09T06:40:23;5.82;;;3.67;;
78989;SDS011;68390;52.130;21.218;2023-05-09T06:42:48;6.03;;;3.63;;
78989;SDS011;68390;52.130;21.218;2023-05-09T06:45:13;5.47;;;2.97;;
78989;SDS011;68390;52.130;21.218;2023-05-09T06:47:39;5.43;;;3.45;;
78989;SDS011;68390;52.130;21.218;2023-05-09T06:50:04;5.27;;;3.33;;
78989;SDS011;68390;52.130;21.218;2023-05-09T06:52:30;4.07;;;2.92;;
78989;SDS011;68390;52.130;21.218;2023-05-09T06:54:56;3.97;;;2.88;;
78989;SDS011;68390;52.130;21.218;2023-05-09T06:57:21;4.20;;;2.78;;
78989;SDS011;68390;52.130;21.218;2023-05-09T06:59:47;5.22;;;3.22;;
78989;SDS011;68390;52.130;21.218;2023-05-09T07:02:13;4.35;;;3.10;;
78989;SDS011;68390;52.130;21.218;2023-05-09T07:04:38;4.25;;;2.95;;
78989;SDS011;68390;52.130;21.218;2023-05-09T07:07:03;5.32;;;3.30;;
78989;SDS011;68390;52.130;21.218;2023-05-09T07:09:29;4.43;;;2.95;;
78989;SDS011;68390;52.130;21.218;2023-05-09T07:11:54;6.38;;;3.65;;
78989;SDS011;68390;52.130;21.218;2023-05-09T07:14:20;4.88;;;2.85;;
78989;SDS011;68390;52.130;21.218;2023-05-09T07:16:45;4.32;;;2.55;;
78989;SDS011;68390;52.130;21.218;2023-05-09T07:19:11;5.88;;;3.10;;
78989;SDS011;68390;52.130;21.218;2023-05-09T07:21:36;3.97;;;2.90;;
78989;SDS011;68390;52.130;21.218;2023-05-09T07:24:02;4.40;;;3.10;;
78989;SDS011;68390;52.130;21.218;2023-05-09T07:26:27;5.85;;;2.95;;
78989;SDS011;68390;52.130;21.218;2023-05-09T07:28:53;3.90;;;2.83;;
78989;SDS011;68390;52.130;21.218;2023-05-09T07:31:18;4.82;;;3.00;;
78989;SDS011;68390;52.130;21.218;2023-05-09T07:33:44;6.35;;;3.00;;
78989;SDS011;68390;52.130;21.218;2023-05-09T07:36:09;3.67;;;2.70;;
78989;SDS011;68390;52.130;21.218;2023-05-09T07:38:40;3.33;;;2.63;;
78989;SDS011;68390;52.130;21.218;2023-05-09T07:41:05;3.97;;;2.42;;
78989;SDS011;68390;52.130;21.218;2023-05-09T07:43:31;4.13;;;3.08;;
78989;SDS011;68390;52.130;21.218;2023-05-09T07:45:57;4.20;;;2.90;;
78989;SDS011;68390;52.130;21.218;2023-05-09T07:48:22;4.68;;;3.00;;
78989;SDS011;68390;52.130;21.218;2023-05-09T07:50:48;4.82;;;2.70;;
78989;SDS011;68390;52.130;21.218;2023-05-09T07:53:13;3.95;;;2.40;;
78989;SDS011;68390;52.130;21.218;2023-05-09T07:55:39;4.72;;;2.72;;
78989;SDS011;68390;52.130;21.218;2023-05-09T07:58:04;4.65;;;2.50;;
78989;SDS011;68390;52.130;21.218;2023-05-09T08:00:30;6.03;;;2.88;;
78989;SDS011;68390;52.130;21.218;2023-05-09T08:02:55;5.03;;;2.72;;
78989;SDS011;68390;52.130;21.218;2023-05-09T08:05:21;3.72;;;2.70;;
78989;SDS011;68390;52.130;21.218;2023-05-09T08:07:46;4.72;;;2.40;;
78989;SDS011;68390;52.130;21.218;2023-05-09T08:10:11;3.80;;;3.17;;
78989;SDS011;68390;52.130;21.218;2023-05-09T08:12:37;5.32;;;2.67;;
78989;SDS011;68390;52.130;21.218;2023-05-09T08:15:03;4.90;;;2.42;;
78989;SDS011;68390;52.130;21.218;2023-05-09T08:17:29;3.22;;;2.28;;
78989;SDS011;68390;52.130;21.218;2023-05-09T08:19:54;3.72;;;2.40;;
78989;SDS011;68390;52.130;21.218;2023-05-09T08:22:20;3.45;;;2.20;;
78989;SDS011;68390;52.130;21.218;2023-05-09T08:24:45;3.80;;;2.75;;
78989;SDS011;68390;52.130;21.218;2023-05-09T08:27:14;3.53;;;2.38;;
78989;SDS011;68390;52.130;21.218;2023-05-09T08:29:40;4.03;;;2.60;;
78989;SDS011;68390;52.130;21.218;2023-05-09T08:32:06;4.35;;;2.40;;
78989;SDS011;68390;52.130;21.218;2023-05-09T08:34:32;4.93;;;2.55;;
78989;SDS011;68390;52.130;21.218;2023-05-09T08:37:01;4.95;;;2.45;;
78989;SDS011;68390;52.130;21.218;2023-05-09T08:39:27;3.88;;;2.40;;
78989;SDS011;68390;52.130;21.218;2023-05-09T08:41:53;5.57;;;2.58;;
78989;SDS011;68390;52.130;21.218;2023-05-09T08:44:23;7.25;;;2.80;;
78989;SDS011;68390;52.130;21.218;2023-05-09T08:46:50;4.82;;;2.72;;
78989;SDS011;68390;52.130;21.218;2023-05-09T08:49:21;3.33;;;2.45;;
78989;SDS011;68390;52.130;21.218;2023-05-09T08:51:47;4.50;;;2.40;;
78989;SDS011;68390;52.130;21.218;2023-05-09T08:54:13;3.88;;;2.78;;
78989;SDS011;68390;52.130;21.218;2023-05-09T08:56:39;3.05;;;2.20;;
78989;SDS011;68390;52.130;21.218;2023-05-09T08:59:05;4.50;;;2.50;;
78989;SDS011;68390;52.130;21.218;2023-05-09T09:01:32;4.07;;;2.58;;
78989;SDS011;68390;52.130;21.218;2023-05-09T09:04:00;4.10;;;2.33;;
78989;SDS011;68390;52.130;21.218;2023-05-09T09:06:29;4.32;;;2.30;;
78989;SDS011;68390;52.130;21.218;2023-05-09T09:08:58;4.60;;;2.60;;
78989;SDS011;68390;52.130;21.218;2023-05-09T09:11:24;5.82;;;2.50;;
78989;SDS011;68390;52.130;21.218;2023-05-09T09:13:52;6.53;;;2.85;;
78989;SDS011;68390;52.130;21.218;2023-05-09T09:16:19;5.15;;;2.72;;
78989;SDS011;68390;52.130;21.218;2023-05-09T09:18:46;4.00;;;3.05;;
78989;SDS011;68390;52.130;21.218;2023-05-09T09:21:14;4.82;;;2.60;;
78989;SDS011;68390;52.130;21.218;2023-05-09T09:23:43;4.25;;;2.53;;
78989;SDS011;68390;52.130;21.218;2023-05-09T09:26:11;4.38;;;2.70;;
78989;SDS011;68390;52.130;21.218;2023-05-09T09:28:37;5.32;;;2.95;;
78989;SDS011;68390;52.130;21.218;2023-05-09T09:33:48;5.55;;;2.75;;
78989;SDS011;68390;52.130;21.218;2023-05-09T09:36:14;4.13;;;2.60;;
78989;SDS011;68390;52.130;21.218;2023-05-09T09:38:40;4.28;;;2.28;;
78989;SDS011;68390;52.130;21.218;2023-05-09T09:41:07;5.22;;;2.40;;
78989;SDS011;68390;52.130;21.218;2023-05-09T09:43:35;4.88;;;2.97;;
78989;SDS011;68390;52.130;21.218;2023-05-09T09:46:01;5.32;;;2.83;;
78989;SDS011;68390;52.130;21.218;2023-05-09T09:48:34;3.95;;;3.03;;
78989;SDS011;68390;52.130;21.218;2023-05-09T09:51:07;3.10;;;2.42;;
78989;SDS011;68390;52.130;21.218;2023-05-09T09:53:40;4.43;;;2.55;;
78989;SDS011;68390;52.130;21.218;2023-05-09T09:56:07;3.58;;;2.50;;
78989;SDS011;68390;52.130;21.218;2023-05-09T09:58:33;4.07;;;2.80;;
78989;SDS011;68390;52.130;21.218;2023-05-09T10:01:05;5.60;;;2.75;;
78989;SDS011;68390;52.130;21.218;2023-05-09T10:03:38;5.05;;;2.80;;
78989;SDS011;68390;52.130;21.218;2023-05-09T10:06:04;6.50;;;2.60;;
78989;SDS011;68390;52.130;21.218;2023-05-09T10:08:34;4.25;;;2.80;;
78989;SDS011;68390;52.130;21.218;2023-05-09T10:10:59;4.78;;;2.35;;
78989;SDS011;68390;52.130;21.218;2023-05-09T10:13:25;4.50;;;2.63;;
78989;SDS011;68390;52.130;21.218;2023-05-09T10:15:53;4.72;;;2.75;;
78989;SDS011;68390;52.130;21.218;2023-05-09T10:18:24;4.55;;;2.58;;
78989;SDS011;68390;52.130;21.218;2023-05-09T10:20:52;5.22;;;2.67;;
78989;SDS011;68390;52.130;21.218;2023-05-09T10:23:19;5.03;;;2.65;;
78989;SDS011;68390;52.130;21.218;2023-05-09T10:25:49;4.22;;;2.38;;
78989;SDS011;68390;52.130;21.218;2023-05-09T10:28:24;4.53;;;2.70;;
78989;SDS011;68390;52.130;21.218;2023-05-09T10:30:59;3.35;;;2.63;;
78989;SDS011;68390;52.130;21.218;2023-05-09T10:33:40;3.10;;;2.38;;
78989;SDS011;68390;52.130;21.218;2023-05-09T10:36:19;4.57;;;2.50;;
78989;SDS011;68390;52.130;21.218;2023-05-09T10:38:45;4.25;;;2.92;;
78989;SDS011;68390;52.130;21.218;2023-05-09T10:41:12;5.63;;;2.95;;
78989;SDS011;68390;52.130;21.218;2023-05-09T10:43:38;3.80;;;2.95;;
78989;SDS011;68390;52.130;21.218;2023-05-09T10:46:04;4.10;;;2.55;;
78989;SDS011;68390;52.130;21.218;2023-05-09T10:48:33;4.13;;;2.50;;
78989;SDS011;68390;52.130;21.218;2023-05-09T10:51:00;4.95;;;2.75;;
78989;SDS011;68390;52.130;21.218;2023-05-09T10:53:49;4.45;;;2.50;;
78989;SDS011;68390;52.130;21.218;2023-05-09T10:58:59;4.32;;;2.85;;
78989;SDS011;68390;52.130;21.218;2023-05-09T11:01:35;3.72;;;2.45;;
78989;SDS011;68390;52.130;21.218;2023-05-09T11:04:10;3.67;;;2.70;;
78989;SDS011;68390;52.130;21.218;2023-05-09T11:11:56;3.90;;;2.50;;
78989;SDS011;68390;52.130;21.218;2023-05-09T11:14:28;4.22;;;3.03;;
78989;SDS011;68390;52.130;21.218;2023-05-09T11:17:02;5.05;;;3.33;;
78989;SDS011;68390;52.130;21.218;2023-05-09T11:24:44;3.97;;;2.90;;
78989;SDS011;68390;52.130;21.218;2023-05-09T11:27:35;4.30;;;2.50;;
78989;SDS011;68390;52.130;21.218;2023-05-09T11:30:03;5.57;;;2.50;;
78989;SDS011;68390;52.130;21.218;2023-05-09T11:32:31;9.05;;;2.80;;
78989;SDS011;68390;52.130;21.218;2023-05-09T11:35:07;3.58;;;2.67;;
78989;SDS011;68390;52.130;21.218;2023-05-09T11:38:19;5.40;;;2.55;;
78989;SDS011;68390;52.130;21.218;2023-05-09T11:40:26;5.18;;;2.63;;
78989;SDS011;68390;52.130;21.218;2023-05-09T11:42:54;4.47;;;2.58;;
78989;SDS011;68390;52.130;21.218;2023-05-09T11:45:21;6.00;;;2.70;;
78989;SDS011;68390;52.130;21.218;2023-05-09T11:47:48;3.97;;;2.78;;
78989;SDS011;68390;52.130;21.218;2023-05-09T11:50:15;4.45;;;2.63;;
78989;SDS011;68390;52.130;21.218;2023-05-09T11:52:43;5.28;;;2.38;;
78989;SDS011;68390;52.130;21.218;2023-05-09T11:55:10;6.70;;;2.72;;
78989;SDS011;68390;52.130;21.218;2023-05-09T11:57:41;5.50;;;2.60;;
78989;SDS011;68390;52.130;21.218;2023-05-09T12:00:14;3.78;;;2.63;;
78989;SDS011;68390;52.130;21.218;2023-05-09T12:02:46;5.85;;;2.72;;
78989;SDS011;68390;52.130;21.218;2023-05-09T12:05:13;3.95;;;2.40;;
78989;SDS011;68390;52.130;21.218;2023-05-09T12:07:43;4.15;;;2.75;;
78989;SDS011;68390;52.130;21.218;2023-05-09T12:10:09;4.88;;;2.53;;
78989;SDS011;68390;52.130;21.218;2023-05-09T12:12:41;3.30;;;2.22;;
78989;SDS011;68390;52.130;21.218;2023-05-09T12:15:09;3.95;;;2.78;;
78989;SDS011;68390;52.130;21.218;2023-05-09T12:17:34;5.88;;;2.60;;
78989;SDS011;68390;52.130;21.218;2023-05-09T12:20:01;4.50;;;2.70;;
78989;SDS011;68390;52.130;21.218;2023-05-09T12:22:29;5.97;;;2.75;;
78989;SDS011;68390;52.130;21.218;2023-05-09T12:24:55;4.45;;;2.42;;
78989;SDS011;68390;52.130;21.218;2023-05-09T12:27:21;5.20;;;2.90;;
78989;SDS011;68390;52.130;21.218;2023-05-09T12:29:47;3.30;;;2.30;;
78989;SDS011;68390;52.130;21.218;2023-05-09T12:32:13;4.43;;;2.65;;
78989;SDS011;68390;52.130;21.218;2023-05-09T12:34:40;3.90;;;2.50;;
78989;SDS011;68390;52.130;21.218;2023-05-09T12:37:15;4.03;;;2.65;;
78989;SDS011;68390;52.130;21.218;2023-05-09T12:39:43;3.33;;;2.40;;
78989;SDS011;68390;52.130;21.218;2023-05-09T12:42:12;4.07;;;2.70;;
78989;SDS011;68390;52.130;21.218;2023-05-09T12:44:38;4.53;;;2.60;;
78989;SDS011;68390;52.130;21.218;2023-05-09T12:47:04;6.57;;;2.80;;
78989;SDS011;68390;52.130;21.218;2023-05-09T12:49:30;3.60;;;2.72;;
78989;SDS011;68390;52.130;21.218;2023-05-09T12:51:57;3.58;;;2.50;;
78989;SDS011;68390;52.130;21.218;2023-05-09T12:54:27;5.15;;;2.92;;
78989;SDS011;68390;52.130;21.218;2023-05-09T12:56:54;4.28;;;2.70;;
78989;SDS011;68390;52.130;21.218;2023-05-09T13:01:52;4.32;;;2.72;;
78989;SDS011;68390;52.130;21.218;2023-05-09T13:04:23;4.75;;;2.83;;
78989;SDS011;68390;52.130;21.218;2023-05-09T13:09:16;4.88;;;2.55;;
78989;SDS011;68390;52.130;21.218;2023-05-09T13:11:42;11.38;;;3.00;;
78989;SDS011;68390;52.130;21.218;2023-05-09T13:14:08;6.38;;;2.55;;
78989;SDS011;68390;52.130;21.218;2023-05-09T13:16:34;3.88;;;2.60;;
78989;SDS011;68390;52.130;21.218;2023-05-09T13:18:59;5.07;;;2.70;;
78989;SDS011;68390;52.130;21.218;2023-05-09T13:21:25;4.80;;;2.72;;
78989;SDS011;68390;52.130;21.218;2023-05-09T13:23:51;4.28;;;2.70;;
78989;SDS011;68390;52.130;21.218;2023-05-09T13:26:16;6.00;;;2.72;;
78989;SDS011;68390;52.130;21.218;2023-05-09T13:28:42;3.80;;;2.72;;
78989;SDS011;68390;52.130;21.218;2023-05-09T13:31:07;7.10;;;2.90;;
78989;SDS011;68390;52.130;21.218;2023-05-09T13:33:33;4.15;;;2.40;;
78989;SDS011;68390;52.130;21.218;2023-05-09T13:35:58;4.50;;;2.80;;
78989;SDS011;68390;52.130;21.218;2023-05-09T13:38:25;3.75;;;2.90;;
78989;SDS011;68390;52.130;21.218;2023-05-09T13:40:54;5.90;;;2.67;;
78989;SDS011;68390;52.130;21.218;2023-05-09T13:43:20;6.63;;;3.10;;
78989;SDS011;68390;52.130;21.218;2023-05-09T13:45:45;4.88;;;2.60;;
78989;SDS011;68390;52.130;21.218;2023-05-09T13:48:10;4.85;;;2.80;;
78989;SDS011;68390;52.130;21.218;2023-05-09T13:50:37;4.22;;;2.60;;
78989;SDS011;68390;52.130;21.218;2023-05-09T13:53:03;3.67;;;2.75;;
78989;SDS011;68390;52.130;21.218;2023-05-09T13:55:28;4.20;;;2.70;;
78989;SDS011;68390;52.130;21.218;2023-05-09T13:57:55;4.63;;;2.72;;
78989;SDS011;68390;52.130;21.218;2023-05-09T14:00:21;3.47;;;2.58;;
78989;SDS011;68390;52.130;21.218;2023-05-09T14:02:48;4.90;;;2.90;;
78989;SDS011;68390;52.130;21.218;2023-05-09T14:05:13;6.38;;;2.80;;
78989;SDS011;68390;52.130;21.218;2023-05-09T14:07:39;6.00;;;2.90;;
78989;SDS011;68390;52.130;21.218;2023-05-09T14:10:05;3.33;;;2.60;;
78989;SDS011;68390;52.130;21.218;2023-05-09T14:12:34;4.70;;;2.58;;
78989;SDS011;68390;52.130;21.218;2023-05-09T14:15:00;4.75;;;2.58;;
78989;SDS011;68390;52.130;21.218;2023-05-09T14:17:26;4.55;;;2.58;;
78989;SDS011;68390;52.130;21.218;2023-05-09T14:19:51;4.47;;;2.80;;
78989;SDS011;68390;52.130;21.218;2023-05-09T14:22:17;3.85;;;2.70;;
78989;SDS011;68390;52.130;21.218;2023-05-09T14:24:43;4.53;;;2.50;;
78989;SDS011;68390;52.130;21.218;2023-05-09T14:27:08;4.25;;;2.55;;
78989;SDS011;68390;52.130;21.218;2023-05-09T14:29:34;3.97;;;2.83;;
78989;SDS011;68390;52.130;21.218;2023-05-09T14:32:00;4.22;;;2.70;;
78989;SDS011;68390;52.130;21.218;2023-05-09T14:34:26;6.05;;;2.70;;
78989;SDS011;68390;52.130;21.218;2023-05-09T14:36:51;5.18;;;2.88;;
78989;SDS011;68390;52.130;21.218;2023-05-09T14:39:17;6.68;;;2.65;;
78989;SDS011;68390;52.130;21.218;2023-05-09T14:41:43;5.70;;;2.92;;
78989;SDS011;68390;52.130;21.218;2023-05-09T14:44:10;3.83;;;2.38;;
78989;SDS011;68390;52.130;21.218;2023-05-09T14:46:36;6.43;;;2.55;;
78989;SDS011;68390;52.130;21.218;2023-05-09T14:49:01;6.90;;;2.97;;